sensor_id;sensor_type;location;lat;lon;timestamp;pressure;altitude;pressure_sealevel;temperature;humidity
73651;BME280;61944;52.538;6.108;2023-09-19T00:00:45;100460.44;;;16.38;100.00
73651;BME280;61944;52.538;6.108;2023-09-19T00:03:12;100462.66;;;16.50;100.00
73651;BME280;61944;52.538;6.108;2023-09-19T00:05:39;100468.81;;;16.45;100.00
73651;BME280;61944;52.538;6.108;2023-09-19T00:08:04;100465.97;;;16.45;100.00
73651;BME280;61944;52.538;6.108;2023-09-19T00:10:31;100464.16;;;16.31;100.00
73651;BME280;61944;52.538;6.108;2023-09-19T00:13:01;100465.47;;;16.26;100.00
73651;BME280;61944;52.538;6.108;2023-09-19T00:15:30;100469.94;;;16.24;100.00
73651;BME280;61944;52.538;6.108;2023-09-19T00:17:58;100465.78;;;16.05;100.00
73651;BME280;61944;52.538;6.108;2023-09-19T00:20:24;100476.19;;;16.12;100.00
73651;BME280;61944;52.538;6.108;2023-09-19T00:22:50;100477.47;;;16.07;100.00
73651;BME280;61944;52.538;6.108;2023-09-19T00:25:17;100488.34;;;16.09;100.00
73651;BME280;61944;52.538;6.108;2023-09-19T00:27:43;100485.03;;;15.83;100.00
73651;BME280;61944;52.538;6.108;2023-09-19T00:30:11;100491.50;;;15.83;100.00
73651;BME280;61944;52.538;6.108;2023-09-19T00:32:40;100478.94;;;15.88;100.00
73651;BME280;61944;52.538;6.108;2023-09-19T00:35:05;100483.53;;;16.05;100.00
73651;BME280;61944;52.538;6.108;2023-09-19T00:37:31;100479.53;;;16.03;100.00
73651;BME280;61944;52.538;6.108;2023-09-19T00:39:56;100469.81;;;16.04;100.00
73651;BME280;61944;52.538;6.108;2023-09-19T00:42:22;100479.00;;;15.81;100.00
73651;BME280;61944;52.538;6.108;2023-09-19T00:44:47;100475.13;;;15.68;100.00
73651;BME280;61944;52.538;6.108;2023-09-19T00:47:16;100483.81;;;15.84;100.00
73651;BME280;61944;52.538;6.108;2023-09-19T00:49:45;100487.81;;;15.87;100.00
73651;BME280;61944;52.538;6.108;2023-09-19T00:52:15;100492.38;;;15.77;100.00
73651;BME280;61944;52.538;6.108;2023-09-19T00:54:45;100501.44;;;15.61;100.00
73651;BME280;61944;52.538;6.108;2023-09-19T00:57:11;100506.72;;;15.55;100.00
73651;BME280;61944;52.538;6.108;2023-09-19T00:59:36;100507.34;;;15.74;100.00
73651;BME280;61944;52.538;6.108;2023-09-19T01:02:02;100514.53;;;15.78;100.00
73651;BME280;61944;52.538;6.108;2023-09-19T01:04:28;100514.75;;;15.60;100.00
73651;BME280;61944;52.538;6.108;2023-09-19T01:06:54;100522.22;;;15.40;100.00
73651;BME280;61944;52.538;6.108;2023-09-19T01:09:20;100510.06;;;15.47;100.00
73651;BME280;61944;52.538;6.108;2023-09-19T01:11:47;100525.19;;;15.60;100.00
73651;BME280;61944;52.538;6.108;2023-09-19T01:14:31;100524.16;;;15.47;100.00
73651;BME280;61944;52.538;6.108;2023-09-19T01:17:13;100530.81;;;15.63;100.00
73651;BME280;61944;52.538;6.108;2023-09-19T01:22:48;100525.50;;;15.35;100.00
73651;BME280;61944;52.538;6.108;2023-09-19T01:25:26;100526.19;;;15.46;100.00
73651;BME280;61944;52.538;6.108;2023-09-19T01:28:14;100526.56;;;15.82;100.00
73651;BME280;61944;52.538;6.108;2023-09-19T01:30:43;100531.06;;;15.42;100.00
73651;BME280;61944;52.538;6.108;2023-09-19T01:33:09;100522.97;;;15.44;100.00
73651;BME280;61944;52.538;6.108;2023-09-19T01:35:40;100525.97;;;15.26;100.00
73651;BME280;61944;52.538;6.108;2023-09-19T01:38:06;100521.88;;;15.34;100.00
73651;BME280;61944;52.538;6.108;2023-09-19T01:40:41;100532.06;;;15.24;100.00
73651;BME280;61944;52.538;6.108;2023-09-19T01:43:27;100532.84;;;15.25;100.00
73651;BME280;61944;52.538;6.108;2023-09-19T01:48:48;100531.81;;;15.46;100.00
73651;BME280;61944;52.538;6.108;2023-09-19T01:51:23;100531.78;;;15.50;100.00
73651;BME280;61944;52.538;6.108;2023-09-19T01:54:01;100529.44;;;15.41;100.00
73651;BME280;61944;52.538;6.108;2023-09-19T01:56:40;100531.06;;;15.42;100.00
73651;BME280;61944;52.538;6.108;2023-09-19T01:59:11;100515.03;;;15.35;100.00
73651;BME280;61944;52.538;6.108;2023-09-19T02:01:39;100529.88;;;15.39;100.00
73651;BME280;61944;52.538;6.108;2023-09-19T02:04:07;100527.09;;;15.36;100.00
73651;BME280;61944;52.538;6.108;2023-09-19T02:06:32;100547.22;;;15.38;100.00
73651;BME280;61944;52.538;6.108;2023-09-19T02:08:59;100544.88;;;15.33;100.00
73651;BME280;61944;52.538;6.108;2023-09-19T02:11:24;100532.09;;;15.55;100.00
73651;BME280;61944;52.538;6.108;2023-09-19T02:13:50;100535.66;;;15.29;100.00
73651;BME280;61944;52.538;6.108;2023-09-19T02:16:19;100519.50;;;15.33;100.00
73651;BME280;61944;52.538;6.108;2023-09-19T02:18:49;100524.19;;;15.05;100.00
73651;BME280;61944;52.538;6.108;2023-09-19T02:21:17;100525.00;;;15.06;100.00
73651;BME280;61944;52.538;6.108;2023-09-19T02:23:44;100520.84;;;15.17;100.00
73651;BME280;61944;52.538;6.108;2023-09-19T02:26:10;100534.34;;;15.37;100.00
73651;BME280;61944;52.538;6.108;2023-09-19T02:28:37;100521.59;;;15.21;100.00
73651;BME280;61944;52.538;6.108;2023-09-19T02:31:02;100544.81;;;15.36;100.00
73651;BME280;61944;52.538;6.108;2023-09-19T02:33:31;100538.09;;;15.27;100.00
73651;BME280;61944;52.538;6.108;2023-09-19T02:35:58;100530.44;;;15.23;100.00
73651;BME280;61944;52.538;6.108;2023-09-19T02:38:24;100540.66;;;15.10;100.00
73651;BME280;61944;52.538;6.108;2023-09-19T02:40:51;100559.50;;;15.20;100.00
73651;BME280;61944;52.538;6.108;2023-09-19T02:43:16;100542.97;;;15.22;100.00
73651;BME280;61944;52.538;6.108;2023-09-19T02:45:42;100544.25;;;15.14;100.00
73651;BME280;61944;52.538;6.108;2023-09-19T02:48:08;100537.09;;;15.02;100.00
73651;BME280;61944;52.538;6.108;2023-09-19T02:50:33;100542.63;;;15.13;100.00
73651;BME280;61944;52.538;6.108;2023-09-19T02:52:59;100539.75;;;15.20;100.00
73651;BME280;61944;52.538;6.108;2023-09-19T02:55:24;100551.34;;;15.30;100.00
73651;BME280;61944;52.538;6.108;2023-09-19T02:57:54;100555.44;;;15.21;100.00
73651;BME280;61944;52.538;6.108;2023-09-19T03:00:20;100539.00;;;15.16;100.00
73651;BME280;61944;52.538;6.108;2023-09-19T03:02:54;100561.41;;;14.86;100.00
73651;BME280;61944;52.538;6.108;2023-09-19T03:05:21;100542.25;;;15.11;100.00
73651;BME280;61944;52.538;6.108;2023-09-19T03:07:47;100542.63;;;15.13;100.00
73651;BME280;61944;52.538;6.108;2023-09-19T03:10:20;100563.88;;;15.25;100.00
73651;BME280;61944;52.538;6.108;2023-09-19T03:12:46;100552.31;;;15.12;100.00
73651;BME280;61944;52.538;6.108;2023-09-19T03:15:12;100551.97;;;15.07;100.00
73651;BME280;61944;52.538;6.108;2023-09-19T03:17:37;100551.53;;;15.08;100.00
73651;BME280;61944;52.538;6.108;2023-09-19T03:20:03;100552.31;;;15.12;100.00
73651;BME280;61944;52.538;6.108;2023-09-19T03:22:45;100552.44;;;14.98;100.00
73651;BME280;61944;52.538;6.108;2023-09-19T03:25:11;100560.69;;;15.19;100.00
73651;BME280;61944;52.538;6.108;2023-09-19T03:27:37;100545.88;;;15.12;100.00
73651;BME280;61944;52.538;6.108;2023-09-19T03:30:04;100532.19;;;15.14;100.00
73651;BME280;61944;52.538;6.108;2023-09-19T03:32:37;100531.88;;;15.01;100.00
73651;BME280;61944;52.538;6.108;2023-09-19T03:35:03;100536.28;;;15.06;100.00
73651;BME280;61944;52.538;6.108;2023-09-19T03:37:31;100556.91;;;14.95;100.00
73651;BME280;61944;52.538;6.108;2023-09-19T03:39:57;100556.41;;;15.04;100.00
73651;BME280;61944;52.538;6.108;2023-09-19T03:42:22;100549.25;;;14.96;100.00
73651;BME280;61944;52.538;6.108;2023-09-19T03:44:51;100550.31;;;15.09;100.00
73651;BME280;61944;52.538;6.108;2023-09-19T03:47:17;100544.50;;;14.86;100.00
73651;BME280;61944;52.538;6.108;2023-09-19T03:49:44;100543.44;;;15.14;100.00
73651;BME280;61944;52.538;6.108;2023-09-19T03:52:09;100530.31;;;14.96;100.00
73651;BME280;61944;52.538;6.108;2023-09-19T03:54:35;100530.75;;;14.95;100.00
73651;BME280;61944;52.538;6.108;2023-09-19T03:57:00;100538.38;;;14.94;100.00
73651;BME280;61944;52.538;6.108;2023-09-19T03:59:25;100539.25;;;14.88;100.00
73651;BME280;61944;52.538;6.108;2023-09-19T04:01:52;100537.09;;;15.02;100.00
73651;BME280;61944;52.538;6.108;2023-09-19T04:04:21;100545.25;;;14.90;100.00
73651;BME280;61944;52.538;6.108;2023-09-19T04:06:46;100540.41;;;14.90;100.00
73651;BME280;61944;52.538;6.108;2023-09-19T04:09:11;100558.06;;;14.98;100.00
73651;BME280;61944;52.538;6.108;2023-09-19T04:11:37;100565.00;;;14.86;100.00
73651;BME280;61944;52.538;6.108;2023-09-19T04:14:03;100552.81;;;15.00;100.00
73651;BME280;61944;52.538;6.108;2023-09-19T04:16:29;100562.16;;;14.90;100.00
73651;BME280;61944;52.538;6.108;2023-09-19T04:18:54;100566.16;;;14.96;100.00
73651;BME280;61944;52.538;6.108;2023-09-19T04:21:20;100564.22;;;14.86;100.00
73651;BME280;61944;52.538;6.108;2023-09-19T04:23:45;100573.63;;;14.68;100.00
73651;BME280;61944;52.538;6.108;2023-09-19T04:26:11;100577.44;;;14.92;100.00
73651;BME280;61944;52.538;6.108;2023-09-19T04:28:37;100569.56;;;14.69;100.00
73651;BME280;61944;52.538;6.108;2023-09-19T04:31:03;100566.47;;;14.53;100.00
73651;BME280;61944;52.538;6.108;2023-09-19T04:33:29;100583.94;;;14.89;100.00
73651;BME280;61944;52.538;6.108;2023-09-19T04:35:54;100574.28;;;14.87;100.00
73651;BME280;61944;52.538;6.108;2023-09-19T04:38:21;100564.06;;;14.48;100.00
73651;BME280;61944;52.538;6.108;2023-09-19T04:40:47;100582.06;;;14.68;100.00
73651;BME280;61944;52.538;6.108;2023-09-19T04:43:12;100572.97;;;14.42;100.00
73651;BME280;61944;52.538;6.108;2023-09-19T04:45:39;100587.38;;;14.48;100.00
73651;BME280;61944;52.538;6.108;2023-09-19T04:48:05;100605.88;;;14.60;100.00
73651;BME280;61944;52.538;6.108;2023-09-19T04:50:34;100587.28;;;14.70;100.00
73651;BME280;61944;52.538;6.108;2023-09-19T04:53:00;100601.84;;;14.50;100.00
73651;BME280;61944;52.538;6.108;2023-09-19T04:55:26;100592.63;;;14.46;100.00
73651;BME280;61944;52.538;6.108;2023-09-19T04:57:52;100605.06;;;14.52;100.00
73651;BME280;61944;52.538;6.108;2023-09-19T05:00:21;100611.50;;;14.60;100.00
73651;BME280;61944;52.538;6.108;2023-09-19T05:02:50;100616.75;;;14.51;100.00
73651;BME280;61944;52.538;6.108;2023-09-19T05:05:16;100607.47;;;14.61;100.00
73651;BME280;61944;52.538;6.108;2023-09-19T05:07:42;100602.69;;;14.51;100.00
73651;BME280;61944;52.538;6.108;2023-09-19T05:10:08;100601.94;;;14.39;100.00
73651;BME280;61944;52.538;6.108;2023-09-19T05:12:35;100614.81;;;14.40;100.00
73651;BME280;61944;52.538;6.108;2023-09-19T05:15:04;100622.06;;;14.34;100.00
73651;BME280;61944;52.538;6.108;2023-09-19T05:17:32;100595.63;;;14.21;100.00
73651;BME280;61944;52.538;6.108;2023-09-19T05:19:57;100608.38;;;14.36;100.00
73651;BME280;61944;52.538;6.108;2023-09-19T05:22:23;100612.50;;;14.14;100.00
73651;BME280;61944;52.538;6.108;2023-09-19T05:24:50;100596.41;;;14.18;100.00
73651;BME280;61944;52.538;6.108;2023-09-19T05:27:16;100610.88;;;14.23;100.00
73651;BME280;61944;52.538;6.108;2023-09-19T05:29:45;100609.25;;;14.30;100.00
73651;BME280;61944;52.538;6.108;2023-09-19T05:32:11;100611.28;;;14.22;100.00
73651;BME280;61944;52.538;6.108;2023-09-19T05:34:37;100609.59;;;14.35;100.00
73651;BME280;61944;52.538;6.108;2023-09-19T05:37:03;100613.25;;;14.25;100.00
73651;BME280;61944;52.538;6.108;2023-09-19T05:39:30;100595.63;;;14.14;100.00
73651;BME280;61944;52.538;6.108;2023-09-19T05:41:55;100613.97;;;14.47;100.00
73651;BME280;61944;52.538;6.108;2023-09-19T05:44:24;100611.31;;;14.89;100.00
73651;BME280;61944;52.538;6.108;2023-09-19T05:46:49;100624.44;;;14.47;100.00
73651;BME280;61944;52.538;6.108;2023-09-19T05:49:14;100616.50;;;14.20;100.00
73651;BME280;61944;52.538;6.108;2023-09-19T05:51:41;100637.44;;;14.19;100.00
73651;BME280;61944;52.538;6.108;2023-09-19T05:54:06;100619.69;;;14.29;100.00
73651;BME280;61944;52.538;6.108;2023-09-19T05:56:31;100626.81;;;14.52;100.00
73651;BME280;61944;52.538;6.108;2023-09-19T05:58:57;100640.16;;;14.40;100.00
73651;BME280;61944;52.538;6.108;2023-09-19T06:01:22;100633.34;;;14.31;100.00
73651;BME280;61944;52.538;6.108;2023-09-19T06:03:48;100653.78;;;14.46;100.00
73651;BME280;61944;52.538;6.108;2023-09-19T06:06:14;100661.84;;;14.43;100.00
73651;BME280;61944;52.538;6.108;2023-09-19T06:08:39;100647.47;;;14.23;100.00
73651;BME280;61944;52.538;6.108;2023-09-19T06:11:08;100635.31;;;14.41;100.00
73651;BME280;61944;52.538;6.108;2023-09-19T06:13:34;100643.75;;;14.44;100.00
73651;BME280;61944;52.538;6.108;2023-09-19T06:16:01;100639.75;;;14.35;100.00
73651;BME280;61944;52.538;6.108;2023-09-19T06:18:33;100647.81;;;14.29;100.00
73651;BME280;61944;52.538;6.108;2023-09-19T06:20:59;100652.19;;;14.44;100.00
73651;BME280;61944;52.538;6.108;2023-09-19T06:23:25;100670.84;;;14.94;100.00
73651;BME280;61944;52.538;6.108;2023-09-19T06:25:52;100664.47;;;14.87;100.00
73651;BME280;61944;52.538;6.108;2023-09-19T06:28:18;100660.22;;;15.13;100.00
73651;BME280;61944;52.538;6.108;2023-09-19T06:30:49;100660.34;;;14.98;100.00
73651;BME280;61944;52.538;6.108;2023-09-19T06:33:14;100664.94;;;14.74;100.00
73651;BME280;61944;52.538;6.108;2023-09-19T06:35:40;100667.28;;;14.83;100.00
73651;BME280;61944;52.538;6.108;2023-09-19T06:38:07;100659.75;;;14.66;100.00
73651;BME280;61944;52.538;6.108;2023-09-19T06:40:34;100644.50;;;14.56;100.00
73651;BME280;61944;52.538;6.108;2023-09-19T06:42:59;100641.78;;;14.34;100.00
73651;BME280;61944;52.538;6.108;2023-09-19T06:45:27;100657.41;;;14.57;100.00
73651;BME280;61944;52.538;6.108;2023-09-19T06:47:53;100654.97;;;14.52;100.00
73651;BME280;61944;52.538;6.108;2023-09-19T06:50:23;100649.72;;;14.54;100.00
73651;BME280;61944;52.538;6.108;2023-09-19T06:52:49;100661.44;;;14.49;100.00
73651;BME280;61944;52.538;6.108;2023-09-19T06:55:17;100648.22;;;14.38;100.00
73651;BME280;61944;52.538;6.108;2023-09-19T06:57:44;100653.78;;;14.46;100.00
73651;BME280;61944;52.538;6.108;2023-09-19T07:00:12;100636.16;;;14.38;100.00
73651;BME280;61944;52.538;6.108;2023-09-19T07:02:54;100638.97;;;14.34;100.00
73651;BME280;61944;52.538;6.108;2023-09-19T07:05:20;100620.44;;;14.40;100.00
73651;BME280;61944;52.538;6.108;2023-09-19T07:07:46;100641.31;;;14.47;100.00
73651;BME280;61944;52.538;6.108;2023-09-19T07:10:11;100645.72;;;14.51;100.00
73651;BME280;61944;52.538;6.108;2023-09-19T07:12:38;100643.72;;;14.55;100.00
73651;BME280;61944;52.538;6.108;2023-09-19T07:15:04;100648.53;;;14.55;100.00
73651;BME280;61944;52.538;6.108;2023-09-19T07:17:31;100649.28;;;14.66;100.00
73651;BME280;61944;52.538;6.108;2023-09-19T07:19:57;100651.72;;;14.64;100.00
73651;BME280;61944;52.538;6.108;2023-09-19T07:22:23;100657.75;;;14.62;100.00
73651;BME280;61944;52.538;6.108;2023-09-19T07:24:49;100650.94;;;14.53;100.00
73651;BME280;61944;52.538;6.108;2023-09-19T07:27:14;100658.97;;;14.61;100.00
73651;BME280;61944;52.538;6.108;2023-09-19T07:29:40;100668.56;;;14.71;100.00
73651;BME280;61944;52.538;6.108;2023-09-19T07:32:05;100667.38;;;14.72;100.00
73651;BME280;61944;52.538;6.108;2023-09-19T07:34:31;100676.19;;;14.78;100.00
73651;BME280;61944;52.538;6.108;2023-09-19T07:36:57;100663.63;;;14.90;100.00
73651;BME280;61944;52.538;6.108;2023-09-19T07:39:23;100670.47;;;14.89;100.00
73651;BME280;61944;52.538;6.108;2023-09-19T07:41:49;100661.19;;;14.92;100.00
73651;BME280;61944;52.538;6.108;2023-09-19T07:44:15;100665.97;;;14.98;100.00
73651;BME280;61944;52.538;6.108;2023-09-19T07:46:41;100649.13;;;14.91;100.00
73651;BME280;61944;52.538;6.108;2023-09-19T07:49:07;100662.81;;;14.93;100.00
73651;BME280;61944;52.538;6.108;2023-09-19T07:51:33;100656.72;;;14.98;100.00
73651;BME280;61944;52.538;6.108;2023-09-19T07:53:58;100671.59;;;15.02;100.00
73651;BME280;61944;52.538;6.108;2023-09-19T07:56:23;100674.72;;;15.11;100.00
73651;BME280;61944;52.538;6.108;2023-09-19T07:58:50;100670.72;;;15.12;100.00
73651;BME280;61944;52.538;6.108;2023-09-19T08:01:17;100671.13;;;15.07;100.00
73651;BME280;61944;52.538;6.108;2023-09-19T08:03:42;100667.16;;;15.01;100.00
73651;BME280;61944;52.538;6.108;2023-09-19T08:06:09;100671.13;;;15.11;100.00
73651;BME280;61944;52.538;6.108;2023-09-19T08:08:35;100673.09;;;15.17;100.00
73651;BME280;61944;52.538;6.108;2023-09-19T08:11:04;100676.72;;;15.18;100.00
73651;BME280;61944;52.538;6.108;2023-09-19T08:13:41;100670.22;;;15.24;100.00
73651;BME280;61944;52.538;6.108;2023-09-19T08:16:12;100681.81;;;15.34;100.00
73651;BME280;61944;52.538;6.108;2023-09-19T08:18:40;100701.09;;;15.39;100.00
73651;BME280;61944;52.538;6.108;2023-09-19T08:21:06;100682.66;;;15.31;100.00
73651;BME280;61944;52.538;6.108;2023-09-19T08:23:39;100685.72;;;15.47;100.00
73651;BME280;61944;52.538;6.108;2023-09-19T08:26:05;100675.69;;;15.42;100.00
73651;BME280;61944;52.538;6.108;2023-09-19T08:28:34;100682.44;;;15.56;100.00
73651;BME280;61944;52.538;6.108;2023-09-19T08:31:03;100696.50;;;15.59;100.00
73651;BME280;61944;52.538;6.108;2023-09-19T08:33:31;100687.22;;;15.62;100.00
73651;BME280;61944;52.538;6.108;2023-09-19T08:35:57;100677.09;;;15.65;100.00
73651;BME280;61944;52.538;6.108;2023-09-19T08:38:22;100673.03;;;15.73;100.00
73651;BME280;61944;52.538;6.108;2023-09-19T08:40:47;100663.69;;;15.80;100.00
73651;BME280;61944;52.538;6.108;2023-09-19T08:43:13;100673.81;;;15.74;100.00
73651;BME280;61944;52.538;6.108;2023-09-19T08:45:38;100682.66;;;15.79;100.00
73651;BME280;61944;52.538;6.108;2023-09-19T08:50:39;100670.38;;;15.93;100.00
73651;BME280;61944;52.538;6.108;2023-09-19T08:53:11;100684.00;;;16.02;100.00
73651;BME280;61944;52.538;6.108;2023-09-19T08:55:41;100661.50;;;15.95;100.00
73651;BME280;61944;52.538;6.108;2023-09-19T08:58:10;100692.34;;;16.13;100.00
73651;BME280;61944;52.538;6.108;2023-09-19T09:00:36;100659.41;;;16.02;100.00
73651;BME280;61944;52.538;6.108;2023-09-19T09:03:03;100681.13;;;16.09;100.00
73651;BME280;61944;52.538;6.108;2023-09-19T09:05:29;100658.19;;;16.03;100.00
73651;BME280;61944;52.538;6.108;2023-09-19T09:07:58;100671.38;;;16.14;100.00
73651;BME280;61944;52.538;6.108;2023-09-19T09:10:27;100652.81;;;16.13;100.00
73651;BME280;61944;52.538;6.108;2023-09-19T09:12:53;100673.63;;;16.30;100.00
73651;BME280;61944;52.538;6.108;2023-09-19T09:15:22;100649.03;;;16.26;100.00
73651;BME280;61944;52.538;6.108;2023-09-19T09:17:48;100671.03;;;16.42;100.00
73651;BME280;61944;52.538;6.108;2023-09-19T09:20:18;100666.69;;;16.34;100.00
73651;BME280;61944;52.538;6.108;2023-09-19T09:22:54;100679.88;;;16.44;100.00
73651;BME280;61944;52.538;6.108;2023-09-19T09:25:20;100665.31;;;16.46;100.00
73651;BME280;61944;52.538;6.108;2023-09-19T09:27:59;100663.56;;;16.56;100.00
73651;BME280;61944;52.538;6.108;2023-09-19T09:30:35;100679.44;;;16.46;100.00
73651;BME280;61944;52.538;6.108;2023-09-19T09:33:09;100673.56;;;16.64;100.00
73651;BME280;61944;52.538;6.108;2023-09-19T09:35:36;100665.53;;;16.59;100.00
73651;BME280;61944;52.538;6.108;2023-09-19T09:38:04;100669.03;;;16.70;100.00
73651;BME280;61944;52.538;6.108;2023-09-19T09:40:46;100687.66;;;16.67;100.00
73651;BME280;61944;52.538;6.108;2023-09-19T09:43:30;100673.44;;;16.71;100.00
73651;BME280;61944;52.538;6.108;2023-09-19T09:46:06;100669.28;;;16.83;100.00
73651;BME280;61944;52.538;6.108;2023-09-19T09:49:07;100679.31;;;16.88;100.00
73651;BME280;61944;52.538;6.108;2023-09-19T09:51:42;100667.34;;;16.76;100.00
73651;BME280;61944;52.538;6.108;2023-09-19T09:56:59;100691.75;;;16.94;100.00
73651;BME280;61944;52.538;6.108;2023-09-19T10:02:19;100687.22;;;17.00;100.00
73651;BME280;61944;52.538;6.108;2023-09-19T10:04:55;100679.91;;;17.02;100.00
73651;BME280;61944;52.538;6.108;2023-09-19T10:07:40;100683.09;;;17.04;100.00
73651;BME280;61944;52.538;6.108;2023-09-19T10:10:08;100677.22;;;16.92;100.00
73651;BME280;61944;52.538;6.108;2023-09-19T10:12:48;100660.66;;;16.94;100.00
73651;BME280;61944;52.538;6.108;2023-09-19T10:15:17;100679.09;;;17.02;100.00
73651;BME280;61944;52.538;6.108;2023-09-19T10:17:46;100673.16;;;17.20;100.00
73651;BME280;61944;52.538;6.108;2023-09-19T10:20:21;100662.84;;;17.33;100.00
73651;BME280;61944;52.538;6.108;2023-09-19T10:23:09;100655.38;;;17.19;100.00
73651;BME280;61944;52.538;6.108;2023-09-19T10:25:38;100654.78;;;17.08;100.00
73651;BME280;61944;52.538;6.108;2023-09-19T10:28:07;100657.69;;;17.01;100.00
73651;BME280;61944;52.538;6.108;2023-09-19T10:30:37;100667.41;;;17.00;100.00
73651;BME280;61944;52.538;6.108;2023-09-19T10:33:07;100645.78;;;17.13;100.00
73651;BME280;61944;52.538;6.108;2023-09-19T10:35:33;100657.97;;;17.34;99.64
73651;BME280;61944;52.538;6.108;2023-09-19T10:38:01;100653.47;;;17.36;99.58
73651;BME280;61944;52.538;6.108;2023-09-19T10:40:28;100640.88;;;17.17;100.00
73651;BME280;61944;52.538;6.108;2023-09-19T10:43:04;100652.19;;;17.17;100.00
73651;BME280;61944;52.538;6.108;2023-09-19T10:45:34;100655.34;;;17.23;100.00
73651;BME280;61944;52.538;6.108;2023-09-19T10:48:01;100655.25;;;17.26;100.00
73651;BME280;61944;52.538;6.108;2023-09-19T10:50:34;100649.13;;;17.08;100.00
73651;BME280;61944;52.538;6.108;2023-09-19T10:53:04;100640.88;;;17.17;100.00
73651;BME280;61944;52.538;6.108;2023-09-19T10:55:32;100643.22;;;17.22;100.00
73651;BME280;61944;52.538;6.108;2023-09-19T10:58:01;100630.13;;;17.32;100.00
73651;BME280;61944;52.538;6.108;2023-09-19T11:01:06;100638.00;;;17.44;100.00
73651;BME280;61944;52.538;6.108;2023-09-19T11:03:41;100606.66;;;17.55;100.00
73651;BME280;61944;52.538;6.108;2023-09-19T11:06:15;100611.03;;;17.60;100.00
73651;BME280;61944;52.538;6.108;2023-09-19T11:09:08;100617.41;;;17.64;100.00
73651;BME280;61944;52.538;6.108;2023-09-19T11:14:15;100619.47;;;18.43;100.00
73651;BME280;61944;52.538;6.108;2023-09-19T11:30:41;100611.44;;;18.22;100.00
73651;BME280;61944;52.538;6.108;2023-09-19T11:33:23;100612.31;;;18.19;100.00
73651;BME280;61944;52.538;6.108;2023-09-19T11:49:29;100598.06;;;18.59;97.96
73651;BME280;61944;52.538;6.108;2023-09-19T11:51:57;100602.59;;;18.56;97.35
73651;BME280;61944;52.538;6.108;2023-09-19T11:54:26;100600.97;;;18.19;98.19
73651;BME280;61944;52.538;6.108;2023-09-19T11:56:57;100595.66;;;18.41;100.00
73651;BME280;61944;52.538;6.108;2023-09-19T11:59:24;100585.72;;;18.13;97.97
73651;BME280;61944;52.538;6.108;2023-09-19T12:01:54;100593.56;;;18.25;99.19
73651;BME280;61944;52.538;6.108;2023-09-19T12:04:39;100586.56;;;18.29;100.00
73651;BME280;61944;52.538;6.108;2023-09-19T12:07:07;100594.81;;;18.40;98.66
73651;BME280;61944;52.538;6.108;2023-09-19T12:09:40;100596.13;;;18.56;98.00
73651;BME280;61944;52.538;6.108;2023-09-19T12:12:09;100604.03;;;18.28;99.32
73651;BME280;61944;52.538;6.108;2023-09-19T12:14:34;100589.78;;;18.84;97.53
73651;BME280;61944;52.538;6.108;2023-09-19T12:17:00;100584.75;;;18.92;98.80
73651;BME280;61944;52.538;6.108;2023-09-19T12:19:27;100585.88;;;18.78;98.61
73651;BME280;61944;52.538;6.108;2023-09-19T12:22:03;100575.59;;;18.68;98.28
73651;BME280;61944;52.538;6.108;2023-09-19T12:24:34;100585.97;;;18.75;96.29
73651;BME280;61944;52.538;6.108;2023-09-19T12:27:05;100591.41;;;18.65;97.86
73651;BME280;61944;52.538;6.108;2023-09-19T12:29:41;100589.06;;;18.80;100.00
73651;BME280;61944;52.538;6.108;2023-09-19T12:32:07;100575.25;;;18.82;95.05
73651;BME280;61944;52.538;6.108;2023-09-19T12:34:32;100582.81;;;18.89;95.36
73651;BME280;61944;52.538;6.108;2023-09-19T12:37:13;100570.78;;;18.65;97.80
73651;BME280;61944;52.538;6.108;2023-09-19T12:39:52;100582.81;;;18.53;96.00
73651;BME280;61944;52.538;6.108;2023-09-19T12:42:24;100578.13;;;18.46;99.43
73651;BME280;61944;52.538;6.108;2023-09-19T12:44:53;100564.31;;;18.48;95.36
73651;BME280;61944;52.538;6.108;2023-09-19T12:47:23;100573.72;;;18.78;98.74
73651;BME280;61944;52.538;6.108;2023-09-19T12:50:24;100587.22;;;18.90;94.68
73651;BME280;61944;52.538;6.108;2023-09-19T12:52:55;100582.63;;;18.80;95.78
73651;BME280;61944;52.538;6.108;2023-09-19T12:55:29;100563.22;;;18.42;97.26
73651;BME280;61944;52.538;6.108;2023-09-19T12:58:08;100563.97;;;18.62;99.17
73651;BME280;61944;52.538;6.108;2023-09-19T13:00:42;100571.16;;;19.16;96.65
73651;BME280;61944;52.538;6.108;2023-09-19T13:06:04;100571.31;;;18.76;96.61
73651;BME280;61944;52.538;6.108;2023-09-19T13:08:31;100564.41;;;18.77;98.33
73651;BME280;61944;52.538;6.108;2023-09-19T13:11:14;100564.34;;;18.64;96.49
73651;BME280;61944;52.538;6.108;2023-09-19T13:13:42;100562.63;;;18.51;97.78
73651;BME280;61944;52.538;6.108;2023-09-19T13:16:09;100560.38;;;18.78;99.05
73651;BME280;61944;52.538;6.108;2023-09-19T13:18:48;100577.81;;;19.09;96.51
73651;BME280;61944;52.538;6.108;2023-09-19T13:21:16;100582.44;;;19.20;95.62
73651;BME280;61944;52.538;6.108;2023-09-19T13:23:52;100574.03;;;18.83;98.45
73651;BME280;61944;52.538;6.108;2023-09-19T13:26:18;100584.59;;;18.83;96.88
73651;BME280;61944;52.538;6.108;2023-09-19T13:28:44;100575.09;;;19.06;96.90
73651;BME280;61944;52.538;6.108;2023-09-19T13:31:10;100584.03;;;18.88;97.98
73651;BME280;61944;52.538;6.108;2023-09-19T13:33:48;100567.38;;;19.06;96.38
73651;BME280;61944;52.538;6.108;2023-09-19T13:36:14;100572.69;;;18.88;97.28